Vancouver Sea Island Ccg, British Columbia

10:31 PM PDT on August 28, 2016 (GMT -0700)
Vancouver International | | Change Station

Elev 13 ft 49.18 °N, 123.17 °W | Updated 31 minutes ago

Overcast
Overcast
64 °F
Feels Like 64 °F
N
2
Wind Variable Wind from Variable

Today
High -- | Low -- °F
--% Chance of Precip.
Yesterday
High -- | Low -- °F
Precip. -- in
Pressure 30.05 in
Visibility 20.0 miles
Clouds Few 2000 ft
Scattered Clouds 5000 ft
Mostly Cloudy 8000 ft
Overcast 14000 ft
Dew Point 54 °F
Humidity 68%
Rainfall 0.00 in
Snow Depth Not available.
6:24 AM 8:02 PM
Waning Crescent, 11% visible
METAR CYVR 290500Z VRB02KT 20SM FEW020 SCT050 BKN080 OVC140 18/12 A3004 RMK SC1SC3AC1AC3 SLP174 DENSITY ALT 100FT
Pressure 30.05 in
Visibility 20.0 miles
Clouds Few 2000 ft
Scattered Clouds 5000 ft
Mostly Cloudy 8000 ft
Overcast 14000 ft
Dew Point 54 °F
Humidity 68%
Rainfall 0.00 in
Snow Depth Not available.
6:24 AM 8:02 PM
Waning Crescent, 11% visible
METAR CYVR 290500Z VRB02KT 20SM FEW020 SCT050 BKN080 OVC140 18/12 A3004 RMK SC1SC3AC1AC3 SLP174 DENSITY ALT 100FT

10-Day Weather Forecast

Almanac

Astronomy

Aug. 28, 2016 Rise Set
Actual Time
Civil Twilight
Nautical Twilight
Astronomical Twilight
Moon
Length of Visible Light
Length of Day
Tomorrow will be .
, % of the Moon is Illuminated

Today's Extremes

Country Highs Country Lows

Community

WunderPhotos

Upload Photos

1,935,800 photos uploaded!

WunderBlog® & News

Nearby

Air Quality

  Air Quality AQ Index Pollutant
Not available.

Snow Depth

Station Depth Elevation

Earthquake Activity

City Distance Mag. Time & Date
Minimum magnitude displayed is 2.5.

Coastal Water Temperatures

Place Temperature

Stations

Nearby Weather Stations

Station Location Temp. Windchill Dew Point Humidity Wind Precip. Elev Updated Type
                   

Watches & Warnings

There are currently no watches in effect.